Gardner, Kansas
Current Conditions -  °F | °C
As of 3:53 AM on Thursday 23 Oct 2014 (Local Time) from KIXD Reporting Station
Light Rain Light Rain  
Wind Chill: 59°   Ceiling: 2100
Heat Index: 59°   Visibility: 10mi
Dew Point: 54°   Wind: 6mph
Humidity: 83%   Direction: 190°S
Pressure: 30.12"   Gusts: NA
Location:  38.81°N, 94.93°W
Report Text: KIXD 230853Z AUTO 19005KT 10SM -RA OVC021 15/12 A3012 RMK AO2 RAB40 SLP192 P0000 60000 T01500122 52005
Loading
Personal Weather Stations






























Interactive Weather Map New forecast layout! Learn more

10-Day Weather Forecast

Advertisements
Track Severe Weather on mobile